createdAt,value
2022-08-24T00:03:46.392Z,20.30
2022-08-24T00:06:15.578Z,20.30
2022-08-24T00:08:43.176Z,20.20
2022-08-24T00:11:10.482Z,20.20
2022-08-24T00:13:39.797Z,20.20
2022-08-24T00:16:12.157Z,20.10
2022-08-24T00:18:41.231Z,20.10
2022-08-24T00:21:09.692Z,20.00
2022-08-24T00:23:38.506Z,20.00
2022-08-24T00:26:07.365Z,20.00
2022-08-24T00:28:35.261Z,20.00
2022-08-24T00:31:03.908Z,19.90
2022-08-24T00:33:35.854Z,19.90
2022-08-24T00:36:07.703Z,19.90
2022-08-24T00:38:36.792Z,19.80
2022-08-24T00:41:06.144Z,19.80
2022-08-24T00:43:35.488Z,19.80
2022-08-24T00:46:21.018Z,19.80
2022-08-24T00:48:52.688Z,19.70
2022-08-24T00:51:51.676Z,19.70
2022-08-24T00:54:19.517Z,19.60
2022-08-24T00:56:54.782Z,19.60
2022-08-24T00:59:27.178Z,19.60
2022-08-24T01:02:01.236Z,19.60
2022-08-24T01:04:51.764Z,19.50
2022-08-24T01:07:23.426Z,19.50
2022-08-24T01:09:59.416Z,19.40
2022-08-24T01:12:29.843Z,19.40
2022-08-24T01:15:01.306Z,19.40
2022-08-24T01:17:47.551Z,19.40
2022-08-24T01:20:15.440Z,19.40
2022-08-24T01:22:55.457Z,19.30
2022-08-24T01:25:28.046Z,19.30
2022-08-24T01:28:02.815Z,19.30
2022-08-24T01:30:36.447Z,19.20
2022-08-24T01:33:07.952Z,19.20
2022-08-24T01:35:39.923Z,19.30
2022-08-24T01:38:12.551Z,19.20
2022-08-24T01:40:57.799Z,19.20
2022-08-24T01:43:25.916Z,19.20
2022-08-24T01:45:54.377Z,19.10
2022-08-24T01:48:23.368Z,19.10
2022-08-24T01:50:53.182Z,19.10
2022-08-24T01:53:25.228Z,19.00
2022-08-24T01:55:56.084Z,19.10
2022-08-24T01:58:24.717Z,19.10
2022-08-24T02:00:54.969Z,19.00
2022-08-24T02:03:30.283Z,19.00
2022-08-24T02:06:02.951Z,19.00
2022-08-24T02:08:32.189Z,18.90
2022-08-24T02:10:59.503Z,18.90
2022-08-24T02:13:28.901Z,18.90
2022-08-24T02:15:56.476Z,18.80
2022-08-24T02:18:24.352Z,18.80
2022-08-24T02:20:53.684Z,18.80
2022-08-24T02:23:22.569Z,18.90
2022-08-24T02:25:50.166Z,18.80
2022-08-24T02:28:18.566Z,18.80
2022-08-24T02:30:47.470Z,18.70
2022-08-24T02:33:15.307Z,18.70
2022-08-24T02:35:48.031Z,18.70
2022-08-24T02:38:15.560Z,18.60
2022-08-24T02:40:43.955Z,18.60
2022-08-24T02:43:14.243Z,18.50
2022-08-24T02:45:49.607Z,18.50
2022-08-24T02:48:22.716Z,18.50
2022-08-24T02:50:53.706Z,18.50
2022-08-24T02:53:27.337Z,18.50
2022-08-24T02:55:55.447Z,18.50
2022-08-24T02:58:22.862Z,18.40
2022-08-24T03:00:54.938Z,18.40
2022-08-24T03:03:23.234Z,18.40
2022-08-24T03:05:52.101Z,18.40
2022-08-24T03:08:22.105Z,18.40
2022-08-24T03:10:50.217Z,18.40
2022-08-24T03:13:18.493Z,18.40
2022-08-24T03:15:46.779Z,18.30
2022-08-24T03:18:14.257Z,18.30
2022-08-24T03:20:44.263Z,18.30
2022-08-24T03:23:12.251Z,18.30
2022-08-24T03:25:41.247Z,18.30
2022-08-24T03:28:15.050Z,18.30
2022-08-24T03:30:48.424Z,18.20
2022-08-24T03:33:19.334Z,18.20
2022-08-24T03:35:47.719Z,18.20
2022-08-24T03:38:17.880Z,18.20
2022-08-24T03:40:45.926Z,18.20
2022-08-24T03:43:33.609Z,18.10
2022-08-24T03:46:04.999Z,18.10
2022-08-24T03:48:33.053Z,18.10
2022-08-24T03:51:01.557Z,18.10
2022-08-24T03:53:29.378Z,18.10
2022-08-24T03:55:56.967Z,18.00
2022-08-24T03:58:24.626Z,18.00
2022-08-24T04:00:52.120Z,18.00
2022-08-24T04:03:20.473Z,18.00
2022-08-24T04:05:47.820Z,18.00
2022-08-24T04:08:17.822Z,17.90
2022-08-24T04:10:46.134Z,17.90
2022-08-24T04:13:13.932Z,17.90
2022-08-24T04:15:43.327Z,17.90
2022-08-24T04:18:14.989Z,17.90
2022-08-24T04:20:44.732Z,17.90
2022-08-24T04:23:17.519Z,17.90
2022-08-24T04:25:47.522Z,17.90
2022-08-24T04:28:23.905Z,17.90
2022-08-24T04:30:51.888Z,17.90
2022-08-24T04:33:33.157Z,17.90
2022-08-24T04:36:03.153Z,17.90
2022-08-24T04:38:33.374Z,17.90
2022-08-24T04:41:42.031Z,17.80
2022-08-24T04:44:11.509Z,17.80
2022-08-24T04:46:46.995Z,17.70
2022-08-24T04:49:16.432Z,17.70
2022-08-24T04:51:44.801Z,17.60
2022-08-24T04:54:12.483Z,17.60
2022-08-24T04:56:40.223Z,17.60
2022-08-24T04:59:07.935Z,17.60
2022-08-24T05:01:35.937Z,17.60
2022-08-24T05:04:06.846Z,17.60
2022-08-24T05:06:35.314Z,17.60
2022-08-24T05:09:05.922Z,17.60
2022-08-24T05:11:36.351Z,17.70
2022-08-24T05:14:05.730Z,17.70
2022-08-24T05:16:38.109Z,17.60
2022-08-24T05:19:07.833Z,17.70
2022-08-24T05:21:36.010Z,17.70
2022-08-24T05:24:04.589Z,17.70
2022-08-24T05:26:33.221Z,17.70
2022-08-24T05:29:03.545Z,17.70
2022-08-24T05:31:45.867Z,17.70
2022-08-24T05:34:16.286Z,17.80
2022-08-24T05:36:44.479Z,17.80
2022-08-24T05:39:33.666Z,17.80
2022-08-24T05:42:07.421Z,17.80
2022-08-24T05:44:43.375Z,17.90
2022-08-24T05:47:11.243Z,17.90
2022-08-24T05:49:41.604Z,17.80
2022-08-24T05:52:12.606Z,17.90
2022-08-24T05:54:44.269Z,17.90
2022-08-24T05:57:16.734Z,18.00
2022-08-24T06:00:04.771Z,18.00
2022-08-24T06:02:44.685Z,18.10
2022-08-24T06:08:41.257Z,18.20
2022-08-24T06:11:31.240Z,18.30
2022-08-24T06:14:07.879Z,18.40
2022-08-24T06:16:43.086Z,18.50
2022-08-24T06:19:13.590Z,18.60
2022-08-24T06:21:41.943Z,18.70
2022-08-24T06:24:09.822Z,18.70
2022-08-24T06:26:57.174Z,18.80
2022-08-24T06:29:35.114Z,18.90
2022-08-24T06:32:23.289Z,19.00
2022-08-24T06:34:55.059Z,19.10
2022-08-24T06:37:29.121Z,19.20
2022-08-24T06:40:01.759Z,19.30
2022-08-24T06:42:33.199Z,19.40
2022-08-24T06:45:02.649Z,19.50
2022-08-24T06:47:32.516Z,19.60
2022-08-24T06:50:05.746Z,19.80
2022-08-24T06:52:36.651Z,19.90
2022-08-24T06:55:06.204Z,20.00
2022-08-24T06:57:33.991Z,20.10
2022-08-24T07:00:05.460Z,20.20
2022-08-24T07:02:36.047Z,20.30
2022-08-24T07:05:05.966Z,20.40
2022-08-24T07:07:53.884Z,20.60
2022-08-24T07:10:22.090Z,20.60
2022-08-24T07:12:53.347Z,20.70
2022-08-24T07:15:21.146Z,20.90
2022-08-24T07:18:02.707Z,20.90
2022-08-24T07:20:34.750Z,21.10
2022-08-24T07:23:10.818Z,21.20
2022-08-24T07:25:38.937Z,21.20
2022-08-24T07:28:11.909Z,21.40
2022-08-24T07:30:44.595Z,21.50
2022-08-24T07:33:15.495Z,21.60
2022-08-24T07:35:44.289Z,21.70
2022-08-24T07:38:13.410Z,21.80
2022-08-24T07:41:09.729Z,22.00
2022-08-24T07:43:36.431Z,22.10
2022-08-24T07:46:09.609Z,22.30
2022-08-24T07:48:38.461Z,22.30
2022-08-24T07:51:10.009Z,22.50
2022-08-24T07:53:53.152Z,22.60
2022-08-24T07:56:29.458Z,22.70
2022-08-24T07:59:07.640Z,22.90
2022-08-24T08:01:45.610Z,23.00
2022-08-24T08:04:25.208Z,23.10
2022-08-24T08:09:24.285Z,23.40
2022-08-24T08:11:53.168Z,23.60
2022-08-24T08:14:27.156Z,23.70
2022-08-24T08:16:54.814Z,23.90
2022-08-24T08:19:23.127Z,24.10
2022-08-24T08:22:13.073Z,24.20
2022-08-24T08:24:59.299Z,24.40
2022-08-24T08:27:28.388Z,24.60
2022-08-24T08:30:01.128Z,24.70
2022-08-24T08:32:33.163Z,24.90
2022-08-24T08:35:02.347Z,25.10
2022-08-24T08:37:43.864Z,25.30
2022-08-24T08:40:31.834Z,25.60
2022-08-24T08:43:05.385Z,25.80
2022-08-24T08:46:05.776Z,26.00
2022-08-24T08:48:58.818Z,26.20
2022-08-24T08:51:38.761Z,26.30
2022-08-24T08:54:19.543Z,26.40
2022-08-24T08:57:24.705Z,26.50
2022-08-24T09:00:16.264Z,26.70
2022-08-24T09:02:53.341Z,26.80
2022-08-24T09:05:42.981Z,27.00
2022-08-24T09:08:40.765Z,27.20
2022-08-24T09:11:16.267Z,27.50
2022-08-24T09:14:06.224Z,27.70
2022-08-24T09:16:46.925Z,27.90
2022-08-24T09:19:40.913Z,28.00
2022-08-24T09:22:18.003Z,28.10
2022-08-24T09:24:54.300Z,28.30
2022-08-24T09:28:14.493Z,28.40
2022-08-24T09:31:09.471Z,28.40
2022-08-24T09:34:03.643Z,28.60
2022-08-24T09:36:54.156Z,28.70
2022-08-24T09:39:31.568Z,29.00
2022-08-24T09:42:35.406Z,29.40
2022-08-24T09:45:28.639Z,29.70
2022-08-24T09:48:22.002Z,30.10
2022-08-24T09:51:09.566Z,30.30
2022-08-24T09:54:05.578Z,30.60
2022-08-24T09:56:59.844Z,30.70
2022-08-24T09:59:55.985Z,30.80
2022-08-24T10:02:48.307Z,31.00
2022-08-24T10:05:41.863Z,31.30
2022-08-24T10:11:43.809Z,31.40
2022-08-24T10:14:19.300Z,31.60
2022-08-24T10:17:21.757Z,31.80
2022-08-24T10:20:04.918Z,32.10
2022-08-24T10:22:52.476Z,32.20
2022-08-24T10:25:39.497Z,32.40
2022-08-24T10:28:19.915Z,32.50
2022-08-24T10:30:59.185Z,32.50
2022-08-24T10:33:51.054Z,32.50
2022-08-24T10:36:42.452Z,32.40
2022-08-24T10:39:46.169Z,32.50
2022-08-24T10:43:11.737Z,32.60
2022-08-24T10:46:09.438Z,32.50
2022-08-24T10:49:02.170Z,32.30
2022-08-24T10:52:04.766Z,32.30
2022-08-24T10:54:36.388Z,32.50
2022-08-24T10:57:34.356Z,32.80
2022-08-24T11:00:22.882Z,33.10
2022-08-24T11:03:19.510Z,33.30
2022-08-24T11:05:53.031Z,33.70
2022-08-24T11:08:25.020Z,33.80
2022-08-24T11:11:17.314Z,34.10
2022-08-24T11:13:59.604Z,34.40
2022-08-24T11:16:33.353Z,34.20
2022-08-24T11:19:05.395Z,33.50
2022-08-24T11:21:45.782Z,33.50
2022-08-24T11:24:19.314Z,33.40
2022-08-24T11:26:59.340Z,33.10
2022-08-24T11:29:56.087Z,32.80
2022-08-24T11:32:41.492Z,32.50
2022-08-24T11:35:29.847Z,32.50
2022-08-24T11:38:14.683Z,32.70
2022-08-24T11:40:47.930Z,32.80
2022-08-24T11:43:22.742Z,32.80
2022-08-24T11:46:07.807Z,32.80
2022-08-24T11:48:54.381Z,32.80
2022-08-24T11:51:37.420Z,32.70
2022-08-24T11:54:26.537Z,32.70
2022-08-24T11:57:15.450Z,32.60
2022-08-24T12:00:03.982Z,32.60
2022-08-24T12:03:01.667Z,32.50
2022-08-24T12:05:35.475Z,32.50
2022-08-24T12:08:21.764Z,32.40
2022-08-24T12:14:27.149Z,32.30
2022-08-24T12:17:07.429Z,32.30
2022-08-24T12:19:39.950Z,32.30
2022-08-24T12:22:11.232Z,32.30
2022-08-24T12:24:52.096Z,32.50
2022-08-24T12:27:31.606Z,32.70
2022-08-24T12:30:05.930Z,33.00
2022-08-24T12:32:42.158Z,33.40
2022-08-24T12:35:53.483Z,33.70
2022-08-24T12:38:26.847Z,34.20
2022-08-24T12:40:57.566Z,34.50
2022-08-24T12:43:25.600Z,34.70
2022-08-24T12:45:56.947Z,34.90
2022-08-24T12:48:27.865Z,34.80
2022-08-24T12:51:16.685Z,34.60
2022-08-24T12:54:05.730Z,34.70
2022-08-24T12:56:55.637Z,34.80
2022-08-24T12:59:31.480Z,34.60
2022-08-24T13:02:04.269Z,34.90
2022-08-24T13:04:40.682Z,35.00
2022-08-24T13:07:32.527Z,35.10
2022-08-24T13:09:59.785Z,35.30
2022-08-24T13:12:41.751Z,35.80
2022-08-24T13:15:26.470Z,36.10
2022-08-24T13:18:02.559Z,36.30
2022-08-24T13:20:43.857Z,36.60
2022-08-24T13:23:12.210Z,36.10
2022-08-24T13:25:52.612Z,35.40
2022-08-24T13:28:29.006Z,34.90
2022-08-24T13:31:22.510Z,34.80
2022-08-24T13:34:09.954Z,34.80
2022-08-24T13:36:47.492Z,34.80
2022-08-24T13:39:35.138Z,34.80
2022-08-24T13:42:31.586Z,34.80
2022-08-24T13:45:26.910Z,34.80
2022-08-24T13:48:38.555Z,35.00
2022-08-24T13:51:24.710Z,35.20
2022-08-24T13:54:04.394Z,35.80
2022-08-24T13:56:44.695Z,36.00
2022-08-24T13:59:16.193Z,35.90
2022-08-24T14:01:52.267Z,36.20
2022-08-24T14:04:26.046Z,36.50
2022-08-24T14:06:56.538Z,36.80
2022-08-24T14:10:02.859Z,36.90
2022-08-24T14:16:21.711Z,36.70
2022-08-24T14:19:23.622Z,36.60
2022-08-24T14:22:11.179Z,36.40
2022-08-24T14:25:03.616Z,36.20
2022-08-24T14:27:43.660Z,36.30
2022-08-24T14:30:21.763Z,35.90
2022-08-24T14:33:05.842Z,35.60
2022-08-24T14:35:42.370Z,35.60
2022-08-24T14:38:13.050Z,35.60
2022-08-24T14:40:54.911Z,35.40
2022-08-24T14:43:51.677Z,35.20
2022-08-24T14:46:36.157Z,35.10
2022-08-24T14:49:41.887Z,35.10
2022-08-24T14:53:03.000Z,34.50
2022-08-24T14:55:45.341Z,34.30
2022-08-24T14:58:29.841Z,34.00
2022-08-24T15:01:26.584Z,34.00
2022-08-24T15:04:41.688Z,33.90
2022-08-24T15:07:26.645Z,33.80
2022-08-24T15:09:55.911Z,33.70
2022-08-24T15:12:39.057Z,33.60
2022-08-24T15:15:52.481Z,33.50
2022-08-24T15:18:49.094Z,33.50
2022-08-24T15:21:37.096Z,33.20
2022-08-24T15:24:45.541Z,33.10
2022-08-24T15:27:19.849Z,32.90
2022-08-24T15:30:02.728Z,32.70
2022-08-24T15:32:49.331Z,32.60
2022-08-24T15:35:33.188Z,32.50
2022-08-24T15:38:25.703Z,32.40
2022-08-24T15:41:19.947Z,32.30
2022-08-24T15:43:59.949Z,32.10
2022-08-24T15:46:37.069Z,32.00
2022-08-24T15:49:15.026Z,31.80
2022-08-24T15:52:11.028Z,31.80
2022-08-24T15:54:46.471Z,31.80
2022-08-24T15:57:26.580Z,31.60
2022-08-24T16:00:05.612Z,31.60
2022-08-24T16:02:39.473Z,31.50
2022-08-24T16:05:28.548Z,31.40
2022-08-24T16:08:11.976Z,31.30
2022-08-24T16:10:48.546Z,31.20
2022-08-24T16:13:29.008Z,31.20
2022-08-24T16:15:57.401Z,31.20
2022-08-24T16:18:41.017Z,31.10
2022-08-24T16:21:38.725Z,31.10
2022-08-24T16:24:10.773Z,31.00
2022-08-24T16:26:47.705Z,30.90
2022-08-24T16:29:37.871Z,30.80
2022-08-24T16:32:31.502Z,30.80
2022-08-24T16:35:13.767Z,30.70
2022-08-24T16:37:41.764Z,30.60
2022-08-24T16:40:13.154Z,30.60
2022-08-24T16:42:41.609Z,30.50
2022-08-24T16:45:12.311Z,30.50
2022-08-24T16:47:39.762Z,30.40
2022-08-24T16:50:07.648Z,30.30
2022-08-24T16:52:35.314Z,30.30
2022-08-24T16:55:03.888Z,30.20
2022-08-24T16:57:37.997Z,30.20
2022-08-24T17:00:15.511Z,30.10
2022-08-24T17:02:45.140Z,30.10
2022-08-24T17:05:13.554Z,30.00
2022-08-24T17:07:41.990Z,30.00
2022-08-24T17:10:13.598Z,29.90
2022-08-24T17:12:43.118Z,29.90
2022-08-24T17:15:17.782Z,29.80
2022-08-24T17:17:56.712Z,29.80
2022-08-24T17:20:25.346Z,29.70
2022-08-24T17:22:53.065Z,29.70
2022-08-24T17:25:20.601Z,29.60
2022-08-24T17:27:49.061Z,29.50
2022-08-24T17:30:20.412Z,29.50
2022-08-24T17:32:48.276Z,29.40
2022-08-24T17:35:17.199Z,29.30
2022-08-24T17:37:44.766Z,29.30
2022-08-24T17:40:15.369Z,29.20
2022-08-24T17:42:51.219Z,29.10
2022-08-24T17:45:23.027Z,29.10
2022-08-24T17:47:53.208Z,29.00
2022-08-24T17:50:21.187Z,28.90
2022-08-24T17:52:58.887Z,28.80
2022-08-24T17:55:34.689Z,28.80
2022-08-24T17:58:03.822Z,28.70
2022-08-24T18:00:32.739Z,28.60
2022-08-24T18:03:01.649Z,28.50
2022-08-24T18:05:35.063Z,28.50
2022-08-24T18:08:03.832Z,28.40
2022-08-24T18:10:36.777Z,28.40
2022-08-24T18:13:04.503Z,28.30
2022-08-24T18:34:19.214Z,27.90
2022-08-24T18:36:47.685Z,27.80
2022-08-24T18:39:16.041Z,27.70
2022-08-24T18:41:49.170Z,27.70
2022-08-24T18:44:22.211Z,27.60
2022-08-24T18:46:51.254Z,27.50
2022-08-24T18:49:20.279Z,27.50
2022-08-24T18:51:48.711Z,27.50
2022-08-24T18:54:23.796Z,27.40
2022-08-24T18:56:52.495Z,27.30
2022-08-24T18:59:21.387Z,27.20
2022-08-24T19:02:09.738Z,27.00
2022-08-24T19:04:45.379Z,27.00
2022-08-24T19:07:15.287Z,26.80
2022-08-24T19:09:53.831Z,26.70
2022-08-24T19:12:22.263Z,26.60
2022-08-24T19:14:53.931Z,26.40
2022-08-24T19:17:21.278Z,26.30
2022-08-24T19:19:49.188Z,26.20
2022-08-24T19:22:18.333Z,26.10
2022-08-24T19:24:48.140Z,26.10
2022-08-24T19:27:17.428Z,26.00
2022-08-24T19:29:56.019Z,26.00
2022-08-24T19:32:29.553Z,26.00
2022-08-24T19:34:58.803Z,25.90
2022-08-24T19:37:27.390Z,25.90
2022-08-24T19:39:55.122Z,25.90
2022-08-24T19:42:25.508Z,25.90
2022-08-24T19:45:12.714Z,25.90
2022-08-24T19:47:40.930Z,25.80
2022-08-24T19:50:21.176Z,25.80
2022-08-24T19:52:49.172Z,25.70
2022-08-24T19:55:17.229Z,25.70
2022-08-24T19:57:48.226Z,25.60
2022-08-24T20:00:18.720Z,25.60
2022-08-24T20:02:51.968Z,25.50
2022-08-24T20:05:21.511Z,25.50
2022-08-24T20:07:50.134Z,25.50
2022-08-24T20:10:20.283Z,25.50
2022-08-24T20:12:47.948Z,25.50
2022-08-24T20:15:24.034Z,25.40
2022-08-24T20:17:52.698Z,25.40
2022-08-24T20:20:25.497Z,25.30
2022-08-24T20:22:53.674Z,25.30
2022-08-24T20:25:23.398Z,25.30
2022-08-24T20:28:06.897Z,25.30
2022-08-24T20:30:44.255Z,25.20
2022-08-24T20:33:21.571Z,25.20
2022-08-24T20:35:50.010Z,25.20
2022-08-24T20:38:20.313Z,25.20
2022-08-24T20:40:50.127Z,25.20
2022-08-24T20:43:18.601Z,25.10
2022-08-24T20:45:46.829Z,25.10
2022-08-24T20:48:47.242Z,25.10
2022-08-24T20:51:32.618Z,25.00
2022-08-24T20:54:05.205Z,25.00
2022-08-24T20:56:41.721Z,25.00
2022-08-24T20:59:12.057Z,24.90
2022-08-24T21:01:43.726Z,24.90
2022-08-24T21:04:12.265Z,24.90
2022-08-24T21:06:44.502Z,24.80
2022-08-24T21:09:14.232Z,24.80
2022-08-24T21:11:43.876Z,24.70
2022-08-24T21:14:13.484Z,24.70
2022-08-24T21:16:43.579Z,24.70
2022-08-24T21:19:14.614Z,24.70
2022-08-24T21:21:42.764Z,24.70
2022-08-24T21:24:10.846Z,24.60
2022-08-24T21:27:12.468Z,24.50
2022-08-24T21:29:40.518Z,24.50
2022-08-24T21:32:35.934Z,24.50
2022-08-24T21:35:03.614Z,24.50
2022-08-24T21:37:31.711Z,24.50
2022-08-24T21:39:59.440Z,24.40
2022-08-24T21:42:27.742Z,24.40
2022-08-24T21:44:55.414Z,24.40
2022-08-24T21:47:24.020Z,24.40
2022-08-24T21:49:51.885Z,24.30
2022-08-24T21:52:19.941Z,24.30
2022-08-24T21:54:47.249Z,24.30
2022-08-24T21:57:15.995Z,24.30
2022-08-24T21:59:44.731Z,24.20
2022-08-24T22:02:21.342Z,24.20
2022-08-24T22:04:55.974Z,24.20
2022-08-24T22:07:25.345Z,24.20
2022-08-24T22:09:55.458Z,24.20
2022-08-24T22:12:22.919Z,24.20
2022-08-24T22:14:50.496Z,24.20
2022-08-24T22:17:19.393Z,24.10
2022-08-24T22:20:21.552Z,24.10
2022-08-24T22:22:52.303Z,24.10
2022-08-24T22:25:20.483Z,24.00
2022-08-24T22:27:50.337Z,24.00
2022-08-24T22:30:18.857Z,24.00
2022-08-24T22:32:46.948Z,24.00
2022-08-24T22:35:16.806Z,24.00
2022-08-24T22:37:46.820Z,24.00
2022-08-24T22:40:15.193Z,24.00
2022-08-24T22:42:46.674Z,23.90
2022-08-24T22:45:13.974Z,23.90
2022-08-24T22:47:41.372Z,23.90
2022-08-24T22:50:09.274Z,23.80
2022-08-24T22:52:38.930Z,23.80
2022-08-24T22:55:08.212Z,23.80
2022-08-24T22:57:35.883Z,23.80
2022-08-24T23:00:15.053Z,23.80
2022-08-24T23:02:45.029Z,23.80
2022-08-24T23:05:12.772Z,23.70
2022-08-24T23:07:40.294Z,23.70
2022-08-24T23:10:08.918Z,23.70
2022-08-24T23:12:36.886Z,23.60
2022-08-24T23:15:04.828Z,23.60
2022-08-24T23:17:33.663Z,23.60
2022-08-24T23:20:02.600Z,23.50
2022-08-24T23:22:34.797Z,23.50
2022-08-24T23:25:09.321Z,23.50
2022-08-24T23:27:38.669Z,23.40
2022-08-24T23:30:12.830Z,23.40
2022-08-24T23:32:53.168Z,23.40
2022-08-24T23:35:21.069Z,23.30
2022-08-24T23:37:48.501Z,23.30
2022-08-24T23:40:16.003Z,23.20
2022-08-24T23:42:44.685Z,23.20
2022-08-24T23:45:12.968Z,23.20
2022-08-24T23:47:41.231Z,23.20
2022-08-24T23:50:11.571Z,23.10
2022-08-24T23:52:40.765Z,23.10
2022-08-24T23:55:19.964Z,23.00
2022-08-24T23:57:52.842Z,23.00
